Time;durP1;ratioP1;P1;durP2;ratioP2;P2;SDS_P1;SDS_P2;PMS_P1;PMS_P2;Temp;Humidity;BMP_temperature;BMP_pressure;BME280_temperature;BME280_humidity;BME280_pressure;Samples;Min_cycle;Max_cycle;Signal;HPM_P1;HPM_P2
2023/04/04 00:00:22;;;;;;;0.20;0.20;;;;;;;10.76;41.67;103155.59;5053771;28;20047;-64
2023/04/04 00:02:48;;;;;;;0.20;0.20;;;;;;;10.75;41.95;103159.28;5054051;28;20064;-64
2023/04/04 00:05:13;;;;;;;0.30;0.30;;;;;;;10.75;41.65;103153.09;5053439;28;20041;-64
2023/04/04 00:07:38;;;;;;;0.20;0.20;;;;;;;10.54;42.15;103150.91;5053417;28;20076;-63
2023/04/04 00:10:04;;;;;;;0.30;0.30;;;;;;;10.69;41.58;103153.75;5033339;28;20041;-66
2023/04/04 00:12:30;;;;;;;0.20;0.20;;;;;;;10.49;42.89;103159.50;5033482;28;20503;-64
2023/04/04 00:14:56;;;;;;;0.32;0.32;;;;;;;10.40;42.06;103146.19;5033979;28;20051;-65
2023/04/04 00:17:21;;;;;;;0.20;0.20;;;;;;;10.26;43.45;103145.00;5033528;28;20105;-63
2023/04/04 00:19:47;;;;;;;0.30;0.30;;;;;;;10.43;42.96;103146.72;5034441;28;20450;-64
2023/04/04 00:22:15;;;;;;;0.20;0.20;;;;;;;10.34;42.90;103144.16;5053845;28;20436;-65
2023/04/04 00:24:40;;;;;;;0.30;0.30;;;;;;;10.48;43.04;103138.97;5053018;28;20123;-64
2023/04/04 00:27:05;;;;;;;0.30;0.30;;;;;;;10.56;42.59;103135.44;5053188;28;20384;-64
2023/04/04 00:29:33;;;;;;;0.30;0.30;;;;;;;10.49;42.97;103131.75;5053269;28;20139;-65
2023/04/04 00:31:59;;;;;;;0.25;0.25;;;;;;;10.48;42.92;103138.13;5034905;28;20045;-65
2023/04/04 00:34:24;;;;;;;0.22;0.22;;;;;;;10.10;44.55;103133.44;5032046;28;20049;-65
2023/04/04 00:36:51;;;;;;;0.30;0.30;;;;;;;10.12;43.95;103132.22;5033014;28;20453;-64
2023/04/04 00:39:17;;;;;;;0.20;0.20;;;;;;;10.27;44.38;103133.28;5052796;28;20044;-64
2023/04/04 00:41:42;;;;;;;0.20;0.20;;;;;;;10.34;42.98;103128.03;5053125;28;20408;-67
2023/04/04 00:44:08;;;;;;;0.20;0.20;;;;;;;10.27;43.20;103127.03;5052968;28;20052;-64
2023/04/04 00:46:33;;;;;;;0.25;0.25;;;;;;;10.19;43.62;103133.25;5053345;28;20025;-64
2023/04/04 00:48:58;;;;;;;0.30;0.30;;;;;;;10.09;44.60;103126.31;5052593;28;20429;-65
2023/04/04 00:51:24;;;;;;;0.28;0.28;;;;;;;10.13;44.31;103131.25;5052815;28;20040;-64
2023/04/04 00:53:50;;;;;;;0.20;0.20;;;;;;;10.13;43.93;103135.75;5052569;28;20056;-64
2023/04/04 00:56:16;;;;;;;0.30;0.30;;;;;;;10.08;44.08;103140.78;5052592;28;20044;-65
2023/04/04 00:58:42;;;;;;;0.20;0.20;;;;;;;9.98;44.30;103137.41;5052488;28;20024;-65
2023/04/04 01:01:09;;;;;;;0.20;0.20;;;;;;;9.95;45.44;103143.09;5052673;28;20029;-65
2023/04/04 01:03:36;;;;;;;0.20;0.20;;;;;;;9.88;45.87;103137.56;5052621;28;20029;-68
2023/04/04 01:06:01;;;;;;;0.30;0.30;;;;;;;10.03;44.53;103143.09;5052509;28;20033;-64
2023/04/04 01:08:28;;;;;;;0.30;0.30;;;;;;;10.13;44.53;103141.13;5052203;28;20523;-65
2023/04/04 01:10:53;;;;;;;0.20;0.20;;;;;;;10.14;44.85;103134.78;5052480;28;20037;-66
2023/04/04 01:13:20;;;;;;;0.20;0.20;;;;;;;10.11;44.94;103135.09;5052775;28;20119;-65
2023/04/04 01:15:45;;;;;;;0.20;0.20;;;;;;;10.00;45.31;103128.19;5052374;28;20539;-65
2023/04/04 01:18:13;;;;;;;0.20;0.20;;;;;;;9.93;45.40;103134.34;5051903;28;20112;-65
2023/04/04 01:20:51;;;;;;;0.30;0.30;;;;;;;9.94;45.42;103136.91;5051906;28;20041;-66
2023/04/04 01:23:17;;;;;;;0.20;0.20;;;;;;;9.58;47.48;103128.22;5051937;28;20515;-64
2023/04/04 01:25:42;;;;;;;0.20;0.20;;;;;;;9.92;45.58;103132.69;5052149;28;20108;-66
2023/04/04 01:28:08;;;;;;;0.35;0.35;;;;;;;9.70;46.48;103134.13;5052811;28;20484;-65
2023/04/04 01:30:37;;;;;;;0.20;0.20;;;;;;;9.77;46.53;103136.00;5051923;28;20102;-64
2023/04/04 01:33:26;;;;;;;0.30;0.30;;;;;;;10.14;44.69;103130.22;5051475;28;20028;-66
2023/04/04 01:36:09;;;;;;;0.30;0.30;;;;;;;9.84;46.27;103129.97;5031372;28;20037;-64
2023/04/04 01:38:49;;;;;;;0.30;0.30;;;;;;;9.84;46.30;103132.66;5045521;28;20037;-64
2023/04/04 01:41:16;;;;;;;0.40;0.40;;;;;;;9.86;46.41;103128.81;5051573;28;20129;-66
2023/04/04 01:43:48;;;;;;;0.40;0.40;;;;;;;9.57;46.42;103128.41;5051203;28;20079;-66
2023/04/04 01:46:16;;;;;;;0.40;0.40;;;;;;;9.70;46.67;103131.47;5043441;28;20032;-66
2023/04/04 01:48:41;;;;;;;0.20;0.20;;;;;;;9.74;46.22;103130.97;5051580;28;20040;-64
2023/04/04 01:51:07;;;;;;;0.20;0.20;;;;;;;9.65;46.81;103134.63;5033207;28;20053;-65
2023/04/04 01:53:33;;;;;;;0.20;0.20;;;;;;;9.41;47.46;103133.72;5051801;28;20044;-63
2023/04/04 01:55:58;;;;;;;0.20;0.20;;;;;;;9.47;47.82;103130.38;5033836;28;20520;-63
2023/04/04 01:58:24;;;;;;;0.35;0.35;;;;;;;9.61;47.14;103127.06;5052058;28;20107;-63
2023/04/04 02:00:50;;;;;;;0.20;0.20;;;;;;;9.47;47.32;103133.06;5032996;28;20492;-64
2023/04/04 02:03:15;;;;;;;0.20;0.20;;;;;;;9.65;46.82;103123.88;5051468;28;20064;-63
2023/04/04 02:05:40;;;;;;;0.20;0.20;;;;;;;9.66;47.32;103130.09;5051592;28;20112;-66
2023/04/04 02:08:06;;;;;;;0.20;0.20;;;;;;;9.52;47.18;103120.84;5050848;28;20061;-64
2023/04/04 02:10:31;;;;;;;0.40;0.40;;;;;;;9.55;47.23;103125.84;5052589;28;20661;-64
2023/04/04 02:12:57;;;;;;;0.20;0.20;;;;;;;9.64;46.76;103127.59;5053564;28;20496;-64
2023/04/04 02:15:23;;;;;;;0.20;0.20;;;;;;;9.45;47.19;103130.50;5052913;28;20041;-64
2023/04/04 02:17:49;;;;;;;0.40;0.40;;;;;;;9.49;47.04;103131.06;5052441;28;20468;-65
2023/04/04 02:20:17;;;;;;;0.30;0.30;;;;;;;9.35;47.19;103139.72;5051364;28;20129;-65
2023/04/04 02:22:48;;;;;;;0.38;0.38;;;;;;;9.31;46.65;103139.19;5051382;28;20097;-65
2023/04/04 02:25:14;;;;;;;0.30;0.30;;;;;;;9.32;46.40;103142.69;5051481;28;20054;-65
2023/04/04 02:27:39;;;;;;;0.20;0.20;;;;;;;9.12;47.92;103138.59;5032708;28;20047;-64
2023/04/04 02:30:05;;;;;;;0.20;0.20;;;;;;;9.18;47.61;103137.97;5050998;28;20044;-63
2023/04/04 02:32:31;;;;;;;0.32;0.32;;;;;;;9.18;48.37;103133.41;5050630;28;20395;-65
2023/04/04 02:34:56;;;;;;;0.30;0.30;;;;;;;9.15;47.82;103125.69;5039061;28;20163;-65
2023/04/04 02:37:21;;;;;;;0.20;0.20;;;;;;;9.15;48.25;103131.06;5035031;28;20385;-65
2023/04/04 02:39:47;;;;;;;0.30;0.30;;;;;;;9.11;47.97;103132.38;5050759;28;20661;-64
2023/04/04 02:42:12;;;;;;;0.30;0.30;;;;;;;9.27;47.41;103124.44;5050609;28;20037;-64
2023/04/04 02:44:37;;;;;;;0.30;0.30;;;;;;;9.30;47.10;103123.25;5050728;28;20120;-64
2023/04/04 02:47:04;;;;;;;0.30;0.30;;;;;;;9.14;48.29;103123.19;5050057;28;20504;-65
2023/04/04 02:49:30;;;;;;;0.30;0.30;;;;;;;9.12;47.87;103115.28;5051213;28;20031;-64
2023/04/04 02:51:56;;;;;;;0.20;0.20;;;;;;;9.14;47.66;103105.22;5050553;28;20120;-64
2023/04/04 02:54:21;;;;;;;0.30;0.30;;;;;;;9.15;47.84;103106.06;5050823;28;20044;-65
2023/04/04 02:56:47;;;;;;;0.30;0.30;;;;;;;8.93;47.56;103112.00;5050601;28;20048;-65
2023/04/04 02:59:12;;;;;;;0.20;0.20;;;;;;;9.09;47.42;103104.03;5050792;28;20370;-65
2023/04/04 03:01:37;;;;;;;0.30;0.30;;;;;;;8.92;47.95;103097.75;5050847;28;20060;-65
2023/04/04 03:04:04;;;;;;;0.25;0.25;;;;;;;8.96;48.67;103093.75;5050627;28;20075;-64
2023/04/04 03:06:32;;;;;;;0.30;0.30;;;;;;;8.95;47.03;103097.44;5050914;28;20045;-64
2023/04/04 03:08:58;;;;;;;0.20;0.20;;;;;;;9.00;47.54;103091.59;5032487;28;20041;-66
2023/04/04 03:11:23;;;;;;;0.30;0.30;;;;;;;8.97;47.44;103098.13;5051199;28;20120;-68
2023/04/04 03:13:50;;;;;;;0.30;0.30;;;;;;;9.04;47.22;103093.78;5050927;28;20025;-66
2023/04/04 03:16:16;;;;;;;0.30;0.30;;;;;;;8.97;47.56;103099.94;5051880;28;20469;-63
2023/04/04 03:18:42;;;;;;;0.30;0.30;;;;;;;8.93;46.76;103096.75;5050469;28;20124;-64
2023/04/04 03:21:07;;;;;;;0.20;0.20;;;;;;;8.90;47.11;103097.09;5050719;28;20561;-65
2023/04/04 03:23:32;;;;;;;0.30;0.30;;;;;;;8.91;47.00;103095.22;5050898;28;20056;-64
2023/04/04 03:25:58;;;;;;;0.30;0.30;;;;;;;8.95;46.91;103096.59;5050875;28;20064;-64
2023/04/04 03:28:23;;;;;;;0.20;0.20;;;;;;;8.88;47.26;103094.53;5051075;28;20349;-65
2023/04/04 03:30:49;;;;;;;0.30;0.30;;;;;;;8.83;47.14;103091.50;5050570;28;20052;-65
2023/04/04 03:33:15;;;;;;;0.20;0.20;;;;;;;8.91;46.43;103088.03;5050202;28;20455;-66
2023/04/04 03:35:41;;;;;;;0.40;0.40;;;;;;;8.78;46.22;103091.16;5032417;28;20099;-65
2023/04/04 03:38:07;;;;;;;0.30;0.30;;;;;;;8.71;46.09;103092.75;5036321;28;20038;-64
2023/04/04 03:40:32;;;;;;;0.30;0.30;;;;;;;8.81;47.09;103093.50;5031138;28;20538;-65
2023/04/04 03:42:58;;;;;;;0.30;0.30;;;;;;;8.72;46.87;103085.56;5030481;28;20045;-65
2023/04/04 03:45:24;;;;;;;0.30;0.30;;;;;;;8.77;46.61;103096.66;5030472;28;20492;-65
2023/04/04 03:47:49;;;;;;;0.20;0.20;;;;;;;8.65;47.63;103092.53;5039997;28;20037;-64
2023/04/04 03:50:15;;;;;;;0.30;0.30;;;;;;;8.66;47.39;103087.06;5032212;28;20041;-66
2023/04/04 03:52:41;;;;;;;0.30;0.30;;;;;;;8.62;46.88;103090.19;5050938;28;20427;-63
2023/04/04 03:55:06;;;;;;;0.30;0.30;;;;;;;8.57;46.46;103089.84;5051005;28;20100;-66
2023/04/04 03:57:32;;;;;;;0.20;0.20;;;;;;;8.58;46.11;103094.19;5049972;28;20087;-64
2023/04/04 03:59:57;;;;;;;0.30;0.30;;;;;;;8.49;47.32;103098.63;5053259;28;20500;-64
2023/04/04 04:02:23;;;;;;;0.30;0.30;;;;;;;8.62;47.06;103090.19;5052746;28;20035;-64
2023/04/04 04:04:48;;;;;;;0.30;0.30;;;;;;;8.59;46.81;103090.50;5053254;28;20075;-65
2023/04/04 04:07:14;;;;;;;0.30;0.30;;;;;;;8.58;47.00;103089.69;5053579;28;20052;-64
2023/04/04 04:09:39;;;;;;;0.38;0.38;;;;;;;8.53;47.65;103091.97;5053019;28;20136;-65
2023/04/04 04:12:05;;;;;;;0.30;0.30;;;;;;;8.46;46.99;103095.44;5053455;28;20056;-64
2023/04/04 04:14:30;;;;;;;0.20;0.20;;;;;;;8.44;47.11;103086.72;5035487;28;20060;-64
2023/04/04 04:16:56;;;;;;;0.30;0.30;;;;;;;8.39;47.45;103086.34;5053949;28;20033;-64
2023/04/04 04:19:21;;;;;;;0.22;0.22;;;;;;;8.36;46.92;103092.00;5054033;28;20041;-65
2023/04/04 04:21:47;;;;;;;0.30;0.30;;;;;;;8.32;47.22;103085.28;5052946;28;20132;-64
2023/04/04 04:24:12;;;;;;;0.30;0.30;;;;;;;8.36;47.05;103086.66;5053442;28;20067;-65
2023/04/04 04:26:37;;;;;;;0.30;0.30;;;;;;;8.34;46.85;103086.81;5053328;28;20083;-64
2023/04/04 04:29:03;;;;;;;0.30;0.30;;;;;;;8.24;47.63;103082.50;5053363;28;20501;-64
2023/04/04 04:31:28;;;;;;;0.30;0.30;;;;;;;8.15;47.94;103081.59;5053836;28;20032;-64
2023/04/04 04:33:53;;;;;;;0.30;0.30;;;;;;;8.14;48.54;103085.25;5051494;28;20133;-64
2023/04/04 04:36:19;;;;;;;0.30;0.30;;;;;;;8.24;47.77;103083.34;5053141;28;20037;-65
2023/04/04 04:38:44;;;;;;;0.30;0.30;;;;;;;8.25;48.56;103093.13;5036156;28;20147;-64
2023/04/04 04:41:10;;;;;;;0.32;0.32;;;;;;;8.22;48.27;103090.69;5029637;28;20280;-63
2023/04/04 04:43:36;;;;;;;0.30;0.30;;;;;;;8.24;47.43;103093.22;5056047;28;20211;-65
2023/04/04 04:46:01;;;;;;;0.30;0.30;;;;;;;8.26;48.22;103086.75;5049968;28;20041;-66
2023/04/04 04:48:27;;;;;;;0.30;0.30;;;;;;;8.13;48.83;103096.13;5048921;28;20039;-65
2023/04/04 04:50:52;;;;;;;0.30;0.30;;;;;;;8.16;48.91;103093.13;5048185;28;20028;-66
2023/04/04 04:53:17;;;;;;;0.30;0.30;;;;;;;8.09;48.88;103094.75;5053557;28;20048;-66
2023/04/04 04:55:45;;;;;;;0.30;0.30;;;;;;;8.11;49.03;103104.34;5047204;28;20113;-66
2023/04/04 04:58:11;;;;;;;0.30;0.30;;;;;;;8.07;49.17;103099.44;5051206;28;20047;-66
2023/04/04 05:00:37;;;;;;;0.32;0.32;;;;;;;8.05;48.52;103098.75;5046371;28;20033;-65
2023/04/04 05:03:05;;;;;;;0.30;0.30;;;;;;;8.14;48.35;103093.31;5051623;28;20029;-65
2023/04/04 05:05:32;;;;;;;0.30;0.30;;;;;;;8.13;48.67;103097.00;5051226;28;20037;-65
2023/04/04 05:07:59;;;;;;;0.40;0.40;;;;;;;8.02;49.63;103099.88;5032631;28;20144;-65
2023/04/04 05:10:25;;;;;;;0.30;0.30;;;;;;;8.02;49.99;103102.56;5056361;28;20432;-65
2023/04/04 05:12:50;;;;;;;0.30;0.30;;;;;;;8.10;49.54;103099.13;5056801;28;20041;-67
2023/04/04 05:15:16;;;;;;;0.40;0.40;;;;;;;8.09;48.99;103109.00;5059570;28;20059;-64
2023/04/04 05:17:41;;;;;;;0.30;0.30;;;;;;;8.14;48.47;103109.38;5058536;28;20040;-65
2023/04/04 05:20:07;;;;;;;0.30;0.30;;;;;;;8.16;48.51;103117.25;5054950;28;20088;-65
2023/04/04 05:22:32;;;;;;;0.40;0.40;;;;;;;8.13;48.35;103117.56;5054962;28;20108;-65
2023/04/04 05:24:58;;;;;;;0.38;0.38;;;;;;;8.16;49.09;103118.09;5057035;28;20532;-64
2023/04/04 05:27:23;;;;;;;0.30;0.30;;;;;;;8.20;49.67;103111.44;5053805;28;20089;-65
2023/04/04 05:29:49;;;;;;;0.40;0.40;;;;;;;8.25;50.01;103101.16;5056720;28;20036;-66
2023/04/04 05:32:14;;;;;;;0.30;0.30;;;;;;;8.34;49.61;103097.53;5060448;28;20041;-65
2023/04/04 05:34:40;;;;;;;0.30;0.30;;;;;;;8.41;49.18;103108.47;5051933;28;20146;-66
2023/04/04 05:37:05;;;;;;;0.30;0.30;;;;;;;8.35;49.47;103109.09;5057083;28;20047;-66
2023/04/04 05:39:30;;;;;;;0.30;0.30;;;;;;;8.40;49.67;103102.25;5050808;28;20132;-65
2023/04/04 05:41:56;;;;;;;0.30;0.30;;;;;;;8.43;49.37;103099.25;5048335;28;20068;-65
2023/04/04 05:44:21;;;;;;;0.40;0.40;;;;;;;8.46;48.47;103103.47;5050793;28;20041;-66
2023/04/04 05:46:47;;;;;;;0.40;0.40;;;;;;;8.47;49.56;103108.66;5050924;28;20571;-67
2023/04/04 05:49:12;;;;;;;0.30;0.30;;;;;;;8.53;49.18;103108.03;5033424;28;20412;-65
2023/04/04 05:51:37;;;;;;;0.30;0.30;;;;;;;8.52;49.60;103109.06;5051152;28;20182;-66
2023/04/04 05:54:03;;;;;;;0.30;0.30;;;;;;;8.59;48.95;103106.56;5050918;28;20082;-65
2023/04/04 05:56:28;;;;;;;0.38;0.38;;;;;;;8.60;49.39;103116.31;5033679;28;20120;-65
2023/04/04 05:58:53;;;;;;;0.30;0.30;;;;;;;8.46;49.73;103115.03;5051363;28;20036;-65
2023/04/04 06:01:19;;;;;;;0.30;0.30;;;;;;;8.66;49.06;103113.84;5045897;28;20028;-67
2023/04/04 06:03:44;;;;;;;0.30;0.30;;;;;;;8.75;48.79;103122.78;5051278;28;20040;-65
2023/04/04 06:06:10;;;;;;;0.30;0.30;;;;;;;8.80;48.45;103117.78;5051517;28;20393;-65
2023/04/04 06:08:35;;;;;;;0.30;0.30;;;;;;;8.83;48.60;103123.69;5051313;28;20448;-65
2023/04/04 06:11:00;;;;;;;0.30;0.30;;;;;;;8.92;48.83;103135.31;5050947;28;20056;-65
2023/04/04 06:13:26;;;;;;;0.30;0.30;;;;;;;9.04;48.48;103131.31;5051582;28;20025;-64
2023/04/04 06:15:51;;;;;;;0.40;0.40;;;;;;;9.09;48.49;103133.53;5050534;28;20045;-65
2023/04/04 06:18:16;;;;;;;0.40;0.40;;;;;;;9.10;48.55;103130.69;5050618;28;20061;-64
2023/04/04 06:20:42;;;;;;;0.30;0.30;;;;;;;9.14;47.81;103134.72;5050627;28;20117;-66
2023/04/04 06:23:08;;;;;;;0.30;0.30;;;;;;;9.27;46.71;103124.44;5051254;28;20120;-64
2023/04/04 06:25:35;;;;;;;0.30;0.30;;;;;;;9.37;47.02;103119.78;5032817;28;20057;-64
2023/04/04 06:28:02;;;;;;;0.25;0.25;;;;;;;9.35;47.72;103123.63;5050491;28;20044;-64
2023/04/04 06:30:28;;;;;;;0.30;0.30;;;;;;;9.45;46.50;103122.47;5050815;28;20059;-64
2023/04/04 06:32:53;;;;;;;0.20;0.20;;;;;;;9.53;46.40;103119.81;5050554;28;20624;-65
2023/04/04 06:35:20;;;;;;;0.20;0.20;;;;;;;9.61;46.45;103114.47;5029059;28;20145;-65
2023/04/04 06:37:46;;;;;;;0.40;0.40;;;;;;;9.71;46.37;103114.31;5030598;28;20029;-66
2023/04/04 06:40:12;;;;;;;0.20;0.20;;;;;;;9.85;46.10;103126.31;5031497;28;20061;-64
2023/04/04 06:42:37;;;;;;;0.25;0.25;;;;;;;10.10;45.88;103122.69;5030534;28;20044;-64
2023/04/04 06:45:02;;;;;;;0.30;0.30;;;;;;;10.08;45.92;103120.13;5030647;28;20057;-64
2023/04/04 06:47:28;;;;;;;0.38;0.38;;;;;;;10.03;45.34;103121.63;5030736;28;20045;-64
2023/04/04 06:49:53;;;;;;;0.22;0.22;;;;;;;10.19;45.45;103121.66;5030894;28;20032;-66
2023/04/04 06:52:18;;;;;;;0.28;0.28;;;;;;;10.24;45.09;103122.03;5031233;28;20029;-65
2023/04/04 06:54:44;;;;;;;0.20;0.20;;;;;;;10.34;44.66;103120.84;5046708;28;20168;-65
2023/04/04 06:57:10;;;;;;;0.30;0.30;;;;;;;10.36;45.62;103121.50;5032338;28;20056;-64
2023/04/04 06:59:35;;;;;;;0.30;0.30;;;;;;;10.57;45.44;103118.31;5050558;28;20029;-64
2023/04/04 07:02:00;;;;;;;0.30;0.30;;;;;;;10.51;45.54;103125.19;5050726;28;20546;-65
2023/04/04 07:04:26;;;;;;;0.50;0.50;;;;;;;10.63;44.56;103119.47;5050882;28;20509;-65
2023/04/04 07:06:51;;;;;;;0.40;0.40;;;;;;;10.81;44.42;103130.91;5050079;28;20412;-65
2023/04/04 07:09:17;;;;;;;0.40;0.40;;;;;;;10.90;44.47;103119.09;5050525;28;20053;-64
2023/04/04 07:11:42;;;;;;;0.40;0.40;;;;;;;10.94;44.50;103117.75;5050387;28;20048;-64
2023/04/04 07:14:08;;;;;;;0.30;0.30;;;;;;;11.11;43.65;103114.81;5050194;28;20045;-65
2023/04/04 07:16:35;;;;;;;0.20;0.20;;;;;;;11.16;43.05;103114.31;5051129;28;20029;-65
2023/04/04 07:19:00;;;;;;;0.20;0.20;;;;;;;10.63;43.95;103112.25;5051904;28;20045;-66
2023/04/04 07:21:26;;;;;;;0.38;0.38;;;;;;;11.07;42.52;103109.97;5052198;28;20041;-65
2023/04/04 07:23:52;;;;;;;0.30;0.30;;;;;;;11.19;42.18;103114.81;5051823;28;20059;-65
2023/04/04 07:26:17;;;;;;;0.20;0.20;;;;;;;10.97;42.23;103120.91;5050236;28;20044;-65
2023/04/04 07:28:43;;;;;;;0.20;0.20;;;;;;;11.54;40.46;103120.72;5049994;28;20041;-65
2023/04/04 07:31:08;;;;;;;0.20;0.20;;;;;;;11.75;40.42;103123.66;5050454;28;20025;-64
2023/04/04 07:33:33;;;;;;;0.20;0.20;;;;;;;11.62;39.91;103126.03;5050660;28;20068;-64
2023/04/04 07:36:02;;;;;;;0.20;0.20;;;;;;;11.74;40.18;103121.97;5033864;28;20044;-64
2023/04/04 07:38:28;;;;;;;0.28;0.28;;;;;;;11.80;39.45;103119.41;5033883;28;20074;-64
2023/04/04 07:40:54;;;;;;;0.20;0.20;;;;;;;11.52;39.26;103117.38;5033663;28;20153;-64
2023/04/04 07:43:20;;;;;;;0.20;0.20;;;;;;;11.92;39.24;103123.38;5034417;28;20215;-66
2023/04/04 07:45:45;;;;;;;0.20;0.20;;;;;;;12.21;38.95;103111.88;5033687;28;20041;-65
2023/04/04 07:48:11;;;;;;;0.20;0.20;;;;;;;12.24;39.36;103112.34;5033633;28;20126;-64
2023/04/04 07:50:36;;;;;;;0.15;0.15;;;;;;;12.59;38.25;103110.91;5033521;28;20485;-64
2023/04/04 07:53:01;;;;;;;0.25;0.25;;;;;;;12.62;38.54;103107.00;5033840;28;20033;-67
2023/04/04 07:55:27;;;;;;;0.20;0.20;;;;;;;12.75;38.12;103107.19;5034221;28;20029;-66
2023/04/04 07:57:53;;;;;;;0.30;0.30;;;;;;;12.62;37.81;103109.69;5033465;28;20482;-65
2023/04/04 08:00:20;;;;;;;0.22;0.22;;;;;;;12.86;37.38;103112.97;5033523;28;20045;-64
2023/04/04 08:02:51;;;;;;;0.20;0.20;;;;;;;12.61;37.22;103105.31;5033363;28;20037;-64
2023/04/04 08:05:16;;;;;;;0.15;0.15;;;;;;;12.67;36.67;103105.41;5033471;28;20095;-65
2023/04/04 08:07:42;;;;;;;0.20;0.20;;;;;;;12.64;37.23;103110.34;5033900;28;20029;-65
2023/04/04 08:10:08;;;;;;;0.30;0.30;;;;;;;13.07;36.66;103101.50;5033641;28;20120;-67
2023/04/04 08:12:33;;;;;;;0.20;0.20;;;;;;;13.08;35.79;103105.84;5033536;28;20432;-66
2023/04/04 08:14:59;;;;;;;0.30;0.30;;;;;;;13.64;35.86;103098.91;5033303;28;20041;-65
2023/04/04 08:17:24;;;;;;;0.20;0.20;;;;;;;13.50;36.02;103094.34;5033260;28;20501;-66
2023/04/04 08:19:50;;;;;;;0.20;0.20;;;;;;;13.51;36.12;103098.72;5042095;28;20184;-66
2023/04/04 08:22:15;;;;;;;0.30;0.30;;;;;;;13.15;36.22;103095.97;5053677;28;20480;-64
2023/04/04 08:24:40;;;;;;;0.20;0.20;;;;;;;14.02;34.82;103103.88;5053346;28;20480;-63
2023/04/04 08:27:06;;;;;;;0.20;0.20;;;;;;;13.80;34.49;103102.19;5053196;28;20033;-65
2023/04/04 08:29:31;;;;;;;0.22;0.22;;;;;;;13.82;34.43;103105.53;5053275;28;20493;-66
2023/04/04 08:31:57;;;;;;;0.30;0.30;;;;;;;14.09;33.37;103103.97;5052915;28;20037;-66
2023/04/04 08:34:22;;;;;;;0.20;0.20;;;;;;;14.35;33.01;103098.00;5046049;28;20025;-65
2023/04/04 08:36:48;;;;;;;0.10;0.10;;;;;;;14.19;31.70;103093.63;5032945;28;20065;-64
2023/04/04 08:39:13;;;;;;;0.20;0.20;;;;;;;14.29;32.58;103098.78;5032952;28;20493;-64
2023/04/04 08:41:44;;;;;;;0.20;0.20;;;;;;;14.06;31.78;103086.25;5032700;28;20061;-65
2023/04/04 08:44:19;;;;;;;0.28;0.28;;;;;;;14.18;31.13;103088.41;5032433;28;20053;-65
2023/04/04 08:46:44;;;;;;;0.20;0.20;;;;;;;14.19;32.34;103084.69;5033453;28;20025;-66
2023/04/04 08:49:12;;;;;;;0.15;0.15;;;;;;;13.87;32.49;103086.91;5024866;28;20165;-65
2023/04/04 08:51:39;;;;;;;0.20;0.20;;;;;;;14.69;31.42;103090.75;5032906;28;20040;-65
2023/04/04 08:54:05;;;;;;;0.20;0.20;;;;;;;14.91;30.92;103078.00;5043623;28;20036;-66
2023/04/04 08:56:33;;;;;;;0.20;0.20;;;;;;;14.82;29.98;103077.31;5052847;28;20072;-64
2023/04/04 08:58:58;;;;;;;0.10;0.10;;;;;;;14.50;30.83;103086.06;5052513;28;20532;-65
2023/04/04 09:01:23;;;;;;;0.20;0.20;;;;;;;14.63;30.01;103079.88;5052867;28;20170;-66
2023/04/04 09:03:51;;;;;;;0.10;0.10;;;;;;;15.45;29.77;103083.50;5052230;28;20108;-65
2023/04/04 09:06:18;;;;;;;0.20;0.20;;;;;;;13.22;32.79;103078.00;5052513;28;20037;-65
2023/04/04 09:08:44;;;;;;;0.30;0.30;;;;;;;13.20;32.37;103072.81;5051993;28;20060;-65
2023/04/04 09:11:12;;;;;;;0.35;0.35;;;;;;;12.93;32.82;103069.91;5051919;28;20025;-67
2023/04/04 09:13:39;;;;;;;0.20;0.20;;;;;;;13.93;30.87;103072.63;5052620;28;20074;-64
2023/04/04 09:16:04;;;;;;;0.10;0.10;;;;;;;14.38;31.25;103071.38;5051976;28;20090;-64
2023/04/04 09:18:30;;;;;;;0.20;0.20;;;;;;;14.74;30.76;103068.53;5052409;28;20124;-66
2023/04/04 09:20:55;;;;;;;0.20;0.20;;;;;;;15.16;29.57;103071.03;5051801;28;20071;-66
2023/04/04 09:23:22;;;;;;;0.30;0.30;;;;;;;14.15;30.26;103072.59;5052128;28;20033;-64
2023/04/04 09:25:54;;;;;;;0.22;0.22;;;;;;;14.97;28.94;103066.38;5051897;28;20518;-66
2023/04/04 09:28:22;;;;;;;0.10;0.10;;;;;;;15.40;28.94;103066.97;5052073;28;20112;-65
2023/04/04 09:30:49;;;;;;;0.20;0.20;;;;;;;15.03;28.57;103072.84;5051871;28;20503;-66
2023/04/04 09:33:16;;;;;;;0.25;0.25;;;;;;;15.80;28.63;103063.41;5051809;28;20116;-64
2023/04/04 09:35:51;;;;;;;0.20;0.20;;;;;;;15.55;28.94;103067.69;5033543;28;20413;-65
2023/04/04 09:38:17;;;;;;;0.30;0.30;;;;;;;15.60;28.05;103070.63;5031746;28;20041;-65
2023/04/04 09:40:43;;;;;;;0.25;0.25;;;;;;;15.79;27.05;103069.84;5031640;28;20377;-64
2023/04/04 09:43:11;;;;;;;0.20;0.20;;;;;;;14.90;28.56;103082.56;5031856;28;20083;-64
2023/04/04 09:45:39;;;;;;;0.20;0.20;;;;;;;13.59;30.21;103080.53;5031274;28;20570;-65
2023/04/04 09:48:05;;;;;;;0.30;0.30;;;;;;;13.76;29.90;103073.03;5031426;28;20033;-65
2023/04/04 09:50:32;;;;;;;0.20;0.20;;;;;;;14.04;28.56;103063.13;5031278;28;20516;-65
2023/04/04 09:52:59;;;;;;;0.10;0.10;;;;;;;15.50;29.70;103065.59;5033003;28;20045;-66
2023/04/04 09:55:54;;;;;;;0.20;0.20;;;;;;;16.38;28.13;103064.47;5051259;28;20079;-64
2023/04/04 09:58:23;;;;;;;0.10;0.10;;;;;;;15.77;27.64;103061.06;5048812;28;20045;-65
2023/04/04 10:00:54;;;;;;;0.32;0.32;;;;;;;15.28;30.36;103071.31;5050962;28;20032;-65
2023/04/04 10:03:22;;;;;;;0.20;0.20;;;;;;;16.31;29.23;103059.03;5051239;28;20057;-65
2023/04/04 10:05:53;;;;;;;0.20;0.20;;;;;;;14.98;29.71;103065.31;5051127;28;20036;-65
2023/04/04 10:08:22;;;;;;;0.30;0.30;;;;;;;15.03;30.22;103065.56;5051055;28;20045;-65
2023/04/04 10:10:50;;;;;;;0.20;0.20;;;;;;;16.56;28.71;103056.56;5051545;28;20489;-65
2023/04/04 10:13:27;;;;;;;0.20;0.20;;;;;;;14.93;30.11;103056.97;5051720;28;20032;-65
2023/04/04 10:15:53;;;;;;;0.15;0.15;;;;;;;15.21;29.98;103063.16;5053622;28;20036;-66
2023/04/04 10:18:24;;;;;;;0.20;0.20;;;;;;;16.04;29.17;103056.56;5053218;28;20033;-64
2023/04/04 10:20:50;;;;;;;0.20;0.20;;;;;;;16.45;29.76;103051.75;5053060;28;20036;-66
2023/04/04 10:23:16;;;;;;;0.20;0.20;;;;;;;15.73;29.64;103057.09;5051508;28;20033;-65
2023/04/04 10:25:42;;;;;;;0.30;0.30;;;;;;;16.59;28.15;103054.25;5050721;28;20031;-66
2023/04/04 10:28:07;;;;;;;0.10;0.10;;;;;;;16.49;27.86;103045.69;5050894;28;20537;-66
2023/04/04 10:30:43;;;;;;;0.28;0.28;;;;;;;16.22;29.17;103043.19;5050789;28;20053;-65
2023/04/04 10:33:14;;;;;;;0.20;0.20;;;;;;;14.54;30.43;103041.34;5050468;28;20041;-65
2023/04/04 10:35:46;;;;;;;0.22;0.22;;;;;;;16.29;29.43;103042.16;5032641;28;20033;-65
2023/04/04 10:38:13;;;;;;;0.17;0.17;;;;;;;15.79;28.88;103030.03;5030768;28;20393;-65
2023/04/04 10:40:42;;;;;;;0.28;0.28;;;;;;;13.93;31.82;103042.88;5030784;28;20452;-64
2023/04/04 10:43:11;;;;;;;0.30;0.30;;;;;;;15.22;30.63;103036.91;5031043;28;20463;-66
2023/04/04 10:45:41;;;;;;;0.20;0.20;;;;;;;15.56;29.89;103031.44;5030490;28;20120;-65
2023/04/04 10:48:07;;;;;;;0.30;0.30;;;;;;;15.91;29.47;103032.94;5031043;28;20485;-65
2023/04/04 10:50:34;;;;;;;0.20;0.20;;;;;;;16.27;28.31;103035.25;5023356;28;20463;-66
2023/04/04 10:53:03;;;;;;;0.20;0.20;;;;;;;16.42;28.13;103034.00;5014918;28;20124;-64
2023/04/04 10:55:30;;;;;;;0.20;0.20;;;;;;;16.47;27.63;103025.22;5050910;28;20104;-65
2023/04/04 10:57:56;;;;;;;0.30;0.30;;;;;;;16.18;28.91;103020.22;5050712;28;20040;-65
2023/04/04 11:00:23;;;;;;;0.20;0.20;;;;;;;14.83;30.87;103018.59;5050604;28;20393;-65
2023/04/04 11:02:51;;;;;;;0.20;0.20;;;;;;;15.79;29.95;103010.19;5050655;28;20029;-66
2023/04/04 11:05:22;;;;;;;0.30;0.30;;;;;;;16.61;29.17;103016.88;5051833;28;20139;-65
2023/04/04 11:07:55;;;;;;;0.20;0.20;;;;;;;17.30;27.99;103005.31;5053503;28;20025;-67
2023/04/04 11:10:26;;;;;;;0.17;0.17;;;;;;;16.58;28.46;103006.44;5056505;28;20045;-65
2023/04/04 11:12:54;;;;;;;0.20;0.20;;;;;;;17.08;28.00;103006.72;5056456;28;20033;-65
2023/04/04 11:15:25;;;;;;;0.10;0.10;;;;;;;16.75;28.08;103011.41;5056389;28;20029;-64
2023/04/04 11:17:57;;;;;;;0.20;0.20;;;;;;;17.15;28.03;103013.78;5057165;28;20033;-65
2023/04/04 11:20:27;;;;;;;0.10;0.10;;;;;;;17.60;26.56;103017.34;5056259;28;20079;-65
2023/04/04 11:23:23;;;;;;;0.15;0.15;;;;;;;17.68;26.75;103008.91;5055891;28;20083;-65
2023/04/04 11:25:55;;;;;;;0.10;0.10;;;;;;;17.25;26.12;103003.28;5055011;28;20074;-64